createdAt,value
2019-01-03T00:00:15.073Z,1.00
2019-01-03T00:03:30.700Z,1.00
2019-01-03T00:06:44.828Z,1.00
2019-01-03T00:09:54.763Z,1.00
2019-01-03T00:13:01.897Z,1.00
2019-01-03T00:16:25.099Z,1.00
2019-01-03T00:19:37.483Z,1.00
2019-01-03T00:22:55.355Z,1.00
2019-01-03T00:26:04.763Z,1.00
2019-01-03T00:29:08.636Z,1.00
2019-01-03T00:32:10.761Z,1.00
2019-01-03T00:35:16.571Z,1.00
2019-01-03T00:38:24.784Z,1.00
2019-01-03T00:41:34.221Z,1.00
2019-01-03T00:44:38.269Z,1.00
2019-01-03T00:47:44.103Z,1.00
2019-01-03T00:50:46.670Z,1.00
2019-01-03T00:53:49.042Z,1.00
2019-01-03T00:57:01.884Z,1.00
2019-01-03T01:00:09.343Z,1.00
2019-01-03T01:03:13.599Z,1.00
2019-01-03T01:06:26.445Z,1.00
2019-01-03T01:09:32.272Z,1.00
2019-01-03T01:12:38.082Z,1.00
2019-01-03T01:15:41.685Z,1.00
2019-01-03T01:18:51.599Z,1.00
2019-01-03T01:21:57.099Z,1.00
2019-01-03T01:25:02.463Z,1.00
2019-01-03T01:28:08.150Z,1.00
2019-01-03T01:31:14.063Z,1.00
2019-01-03T01:34:32.636Z,1.00
2019-01-03T01:37:37.354Z,1.00
2019-01-03T01:40:39.094Z,1.00
2019-01-03T01:43:54.715Z,1.00
2019-01-03T01:46:57.189Z,1.00
2019-01-03T01:50:11.324Z,1.00
2019-01-03T01:53:14.506Z,1.00
2019-01-03T01:56:19.887Z,1.00
2019-01-03T01:59:23.729Z,1.00
2019-01-03T02:02:31.782Z,1.00
2019-01-03T02:05:36.965Z,1.00
2019-01-03T02:08:42.246Z,1.00
2019-01-03T02:11:54.533Z,1.00
2019-01-03T02:15:00.406Z,1.00
2019-01-03T02:18:15.170Z,1.00
2019-01-03T02:21:25.058Z,1.00
2019-01-03T02:24:46.020Z,1.00
2019-01-03T02:27:52.291Z,1.00
2019-01-03T02:30:57.748Z,1.00
2019-01-03T02:34:16.394Z,1.00
2019-01-03T02:37:35.258Z,1.00
2019-01-03T02:40:36.368Z,1.00
2019-01-03T02:43:48.334Z,1.00
2019-01-03T02:46:56.822Z,1.00
2019-01-03T02:50:18.840Z,1.00
2019-01-03T02:53:17.964Z,1.00
2019-01-03T02:56:31.622Z,1.00
2019-01-03T02:59:51.241Z,1.00
2019-01-03T03:03:04.715Z,1.00
2019-01-03T03:06:11.177Z,1.00
2019-01-03T03:09:32.828Z,1.00
2019-01-03T03:12:42.574Z,1.00
2019-01-03T03:15:49.403Z,1.00
2019-01-03T03:18:47.946Z,1.00
2019-01-03T03:22:00.449Z,1.00
2019-01-03T03:25:21.949Z,1.00
2019-01-03T03:28:22.812Z,1.00
2019-01-03T03:31:41.945Z,1.00
2019-01-03T03:34:48.932Z,1.00
2019-01-03T03:38:09.872Z,1.00
2019-01-03T03:41:11.753Z,1.00
2019-01-03T03:44:17.078Z,1.00
2019-01-03T03:47:22.806Z,1.00
2019-01-03T03:50:29.863Z,1.00
2019-01-03T03:53:31.346Z,1.00
2019-01-03T03:56:36.764Z,1.00
2019-01-03T03:59:59.877Z,1.00
2019-01-03T04:03:05.512Z,1.00
2019-01-03T04:06:11.822Z,1.00
2019-01-03T04:09:17.599Z,1.00
2019-01-03T04:12:23.351Z,1.00
2019-01-03T04:15:29.348Z,1.00
2019-01-03T04:18:28.367Z,1.00
2019-01-03T04:21:33.916Z,1.00
2019-01-03T04:24:39.663Z,1.00
2019-01-03T04:27:45.334Z,1.00
2019-01-03T04:30:55.144Z,1.00
2019-01-03T04:34:08.082Z,1.00
2019-01-03T04:37:16.815Z,1.00
2019-01-03T04:40:11.843Z,1.00
2019-01-03T04:43:17.669Z,1.00
2019-01-03T04:46:17.089Z,1.00
2019-01-03T04:49:15.309Z,1.00
2019-01-03T04:52:30.963Z,1.00
2019-01-03T04:55:36.639Z,1.00
2019-01-03T04:58:36.263Z,1.00
2019-01-03T05:02:06.408Z,1.00
2019-01-03T05:05:11.995Z,1.00
2019-01-03T05:08:18.207Z,2.50
2019-01-03T05:11:23.397Z,3.80
2019-01-03T05:14:29.328Z,3.00
2019-01-03T05:17:39.112Z,3.80
2019-01-03T05:20:49.934Z,5.70
2019-01-03T05:23:57.332Z,5.30
2019-01-03T05:27:00.117Z,6.70
2019-01-03T05:30:22.895Z,8.50
2019-01-03T05:33:44.575Z,8.50
2019-01-03T05:36:53.989Z,9.40
2019-01-03T05:40:09.582Z,10.90
2019-01-03T05:43:13.365Z,10.80
2019-01-03T05:46:19.142Z,11.80
2019-01-03T05:49:31.359Z,13.50
2019-01-03T05:52:38.329Z,14.70
2019-01-03T05:55:44.019Z,14.80
2019-01-03T05:58:43.597Z,15.80
2019-01-03T06:01:59.364Z,16.80
2019-01-03T06:04:59.204Z,18.40
2019-01-03T06:08:08.108Z,19.80
2019-01-03T06:11:13.640Z,19.30
2019-01-03T06:14:25.563Z,20.80
2019-01-03T06:17:32.420Z,22.50
2019-01-03T06:20:41.808Z,21.70
2019-01-03T06:23:44.997Z,23.10
2019-01-03T06:26:51.703Z,23.10
2019-01-03T06:29:44.345Z,24.20
2019-01-03T06:32:53.321Z,25.50
2019-01-03T06:36:01.485Z,26.20
2019-01-03T06:39:06.812Z,26.70
2019-01-03T06:42:12.276Z,27.90
2019-01-03T06:45:17.922Z,27.40
2019-01-03T06:48:29.198Z,28.70
2019-01-03T06:51:36.214Z,28.50
2019-01-03T06:54:41.902Z,29.40
2019-01-03T06:57:47.537Z,29.90
2019-01-03T07:00:45.034Z,29.60
2019-01-03T07:03:54.979Z,29.80
2019-01-03T07:07:01.309Z,30.50
2019-01-03T07:10:08.891Z,31.30
2019-01-03T07:13:12.602Z,31.60
2019-01-03T07:16:19.873Z,32.50
2019-01-03T07:19:26.664Z,32.30
2019-01-03T07:22:23.777Z,32.60
2019-01-03T07:25:29.030Z,32.50
2019-01-03T07:28:32.692Z,32.20
2019-01-03T07:31:38.112Z,32.10
2019-01-03T07:34:43.358Z,32.40
2019-01-03T07:37:43.055Z,32.00
2019-01-03T07:40:48.929Z,32.20
2019-01-03T07:43:46.477Z,32.80
2019-01-03T07:46:53.721Z,32.70
2019-01-03T07:50:13.579Z,32.30
2019-01-03T07:53:32.286Z,33.60
2019-01-03T07:56:37.468Z,33.90
2019-01-03T07:59:56.772Z,33.50
2019-01-03T08:03:14.847Z,34.20
2019-01-03T08:06:30.527Z,34.70
2019-01-03T08:09:36.642Z,34.70
2019-01-03T08:12:39.848Z,35.20
2019-01-03T08:15:45.368Z,36.40
2019-01-03T08:18:55.044Z,37.00
2019-01-03T08:22:11.067Z,37.90
2019-01-03T08:25:17.899Z,38.10
2019-01-03T08:28:29.842Z,38.20
2019-01-03T08:31:49.223Z,38.30
2019-01-03T08:34:53.867Z,38.50
2019-01-03T08:38:12.992Z,38.60
2019-01-03T08:41:34.416Z,38.80
2019-01-03T08:44:41.120Z,38.70
2019-01-03T08:47:48.252Z,38.80
2019-01-03T08:50:54.450Z,39.10
2019-01-03T08:54:10.100Z,39.10
2019-01-03T08:57:25.647Z,39.20
2019-01-03T09:00:27.586Z,39.10
2019-01-03T09:03:32.895Z,39.50
2019-01-03T09:06:38.074Z,39.70
2019-01-03T09:09:43.655Z,39.70
2019-01-03T09:13:05.639Z,39.50
2019-01-03T09:16:08.522Z,39.60
2019-01-03T09:19:31.886Z,40.50
2019-01-03T09:22:36.759Z,39.60
2019-01-03T09:25:44.539Z,39.60
2019-01-03T09:28:45.471Z,39.80
2019-01-03T09:32:02.651Z,39.70
2019-01-03T09:35:02.071Z,40.00
2019-01-03T09:38:07.821Z,40.00
2019-01-03T09:41:13.940Z,39.90
2019-01-03T09:44:18.679Z,39.90
2019-01-03T09:47:05.882Z,39.60
2019-01-03T09:49:53.490Z,39.50
2019-01-03T09:52:43.981Z,39.50
2019-01-03T09:55:31.940Z,39.00
2019-01-03T09:58:19.437Z,39.00
2019-01-03T10:01:06.739Z,39.40
2019-01-03T10:03:54.620Z,38.80
2019-01-03T10:06:42.380Z,38.40
2019-01-03T10:09:29.823Z,38.10
2019-01-03T10:12:17.384Z,37.40
2019-01-03T10:15:04.886Z,36.90
2019-01-03T10:17:52.180Z,36.20
2019-01-03T10:20:39.786Z,35.70
2019-01-03T10:23:27.095Z,35.80
2019-01-03T10:26:14.548Z,34.80
2019-01-03T10:29:01.701Z,33.50
2019-01-03T10:31:48.684Z,32.00
2019-01-03T10:34:36.472Z,31.20
2019-01-03T10:37:23.915Z,30.10
2019-01-03T10:40:11.107Z,29.90
2019-01-03T10:42:59.288Z,29.10
2019-01-03T10:45:47.182Z,28.90
2019-01-03T10:48:34.383Z,25.90
2019-01-03T10:51:21.803Z,27.20
2019-01-03T10:54:09.061Z,28.10
2019-01-03T10:56:56.511Z,28.60
2019-01-03T10:59:43.814Z,28.10
2019-01-03T11:02:31.351Z,28.80
2019-01-03T11:05:18.863Z,29.50
2019-01-03T11:08:06.314Z,30.10
2019-01-03T11:10:54.608Z,30.30
2019-01-03T11:13:42.000Z,30.90
2019-01-03T11:16:29.910Z,30.30
2019-01-03T11:19:17.097Z,30.70
2019-01-03T11:22:04.771Z,31.00
2019-01-03T11:24:54.036Z,31.10
2019-01-03T11:27:42.035Z,31.00
2019-01-03T11:30:29.952Z,31.00
2019-01-03T11:33:17.178Z,28.60
2019-01-03T11:36:04.975Z,24.80
2019-01-03T11:38:54.161Z,21.70
2019-01-03T11:41:44.324Z,20.10
2019-01-03T11:44:33.180Z,20.40
2019-01-03T11:47:30.415Z,18.10
2019-01-03T11:50:18.652Z,18.20
2019-01-03T11:53:07.644Z,14.80
2019-01-03T11:55:55.300Z,13.00
2019-01-03T11:58:43.036Z,14.80
2019-01-03T12:01:30.161Z,13.70
2019-01-03T12:04:17.339Z,12.60
2019-01-03T12:07:04.911Z,11.50
2019-01-03T12:09:52.881Z,11.30
2019-01-03T12:12:40.275Z,10.50
2019-01-03T12:15:27.699Z,11.20
2019-01-03T12:18:14.918Z,10.20
2019-01-03T12:21:02.379Z,11.10
2019-01-03T12:23:50.187Z,11.50
2019-01-03T12:26:37.573Z,11.30
2019-01-03T12:29:25.147Z,11.90
2019-01-03T12:32:26.120Z,13.00
2019-01-03T12:35:13.715Z,14.50
2019-01-03T12:38:01.553Z,14.50
2019-01-03T12:40:49.861Z,14.50
2019-01-03T12:43:37.111Z,14.50
2019-01-03T12:46:24.630Z,15.60
2019-01-03T12:49:12.350Z,16.10
2019-01-03T12:52:00.165Z,15.70
2019-01-03T12:54:48.111Z,15.20
2019-01-03T12:57:35.434Z,15.50
2019-01-03T13:00:35.302Z,13.50
2019-01-03T13:03:23.012Z,13.00
2019-01-03T13:06:11.358Z,10.60
2019-01-03T13:09:00.488Z,8.90
2019-01-03T13:11:48.289Z,7.40
2019-01-03T13:14:36.145Z,8.30
2019-01-03T13:17:26.082Z,8.10
2019-01-03T13:20:21.424Z,8.70
2019-01-03T13:23:09.328Z,8.80
2019-01-03T13:25:57.029Z,8.60
2019-01-03T13:28:44.485Z,9.00
2019-01-03T13:31:33.011Z,8.80
2019-01-03T13:34:20.676Z,9.10
2019-01-03T13:37:08.552Z,10.20
2019-01-03T13:39:55.875Z,9.60
2019-01-03T13:42:43.656Z,10.00
2019-01-03T13:45:31.112Z,9.80
2019-01-03T13:48:18.821Z,9.90
2019-01-03T13:51:07.052Z,10.60
2019-01-03T13:53:54.785Z,11.30
2019-01-03T13:56:42.451Z,11.40
2019-01-03T13:59:30.081Z,10.80
2019-01-03T14:02:18.657Z,11.00
2019-01-03T14:05:06.296Z,10.60
2019-01-03T14:07:54.149Z,5.70
2019-01-03T14:10:41.488Z,1.00
2019-01-03T14:13:29.119Z,1.00
2019-01-03T14:16:17.108Z,1.00
2019-01-03T14:19:04.756Z,1.00
2019-01-03T14:21:52.448Z,1.00
2019-01-03T14:24:40.248Z,2.30
2019-01-03T14:27:28.284Z,3.50
2019-01-03T14:30:17.389Z,6.50
2019-01-03T14:33:05.166Z,7.30
2019-01-03T14:35:52.669Z,8.60
2019-01-03T14:38:40.197Z,10.10
2019-01-03T14:41:27.897Z,10.80
2019-01-03T14:44:15.392Z,11.40
2019-01-03T14:47:02.888Z,12.40
2019-01-03T14:49:50.365Z,12.70
2019-01-03T14:52:38.647Z,12.40
2019-01-03T14:55:26.659Z,12.20
2019-01-03T14:58:14.086Z,13.30
2019-01-03T15:01:01.821Z,14.40
2019-01-03T15:03:49.809Z,16.40
2019-01-03T15:06:37.480Z,17.20
2019-01-03T15:09:24.637Z,18.90
2019-01-03T15:12:12.169Z,20.60
2019-01-03T15:14:59.860Z,21.40
2019-01-03T15:17:47.056Z,23.00
2019-01-03T15:20:34.567Z,22.50
2019-01-03T15:23:22.456Z,23.50
2019-01-03T15:26:10.395Z,24.20
2019-01-03T15:28:58.367Z,24.20
2019-01-03T15:31:46.110Z,24.60
2019-01-03T15:34:34.088Z,24.70
2019-01-03T15:37:21.915Z,24.90
2019-01-03T15:40:10.347Z,25.10
2019-01-03T15:42:58.141Z,26.10
2019-01-03T15:45:45.905Z,26.10
2019-01-03T15:48:33.323Z,26.20
2019-01-03T15:51:20.452Z,26.70
2019-01-03T15:54:10.622Z,27.50
2019-01-03T15:56:58.507Z,27.70
2019-01-03T15:59:45.614Z,28.10
2019-01-03T16:02:33.376Z,28.10
2019-01-03T16:05:21.146Z,29.60
2019-01-03T16:08:08.532Z,29.00
2019-01-03T16:10:56.685Z,29.40
2019-01-03T16:13:44.593Z,29.70
2019-01-03T16:16:32.268Z,30.00
2019-01-03T16:19:20.104Z,30.40
2019-01-03T16:22:07.227Z,30.20
2019-01-03T16:24:54.468Z,29.50
2019-01-03T16:27:41.737Z,30.00
2019-01-03T16:30:29.207Z,30.50
2019-01-03T16:33:16.401Z,29.80
2019-01-03T16:36:04.261Z,29.90
2019-01-03T16:38:51.474Z,30.30
2019-01-03T16:41:38.917Z,30.40
2019-01-03T16:44:26.260Z,30.60
2019-01-03T16:47:13.842Z,28.90
2019-01-03T16:50:01.262Z,28.80
2019-01-03T16:52:48.905Z,29.10
2019-01-03T16:55:36.651Z,28.00
2019-01-03T16:58:25.496Z,28.10
2019-01-03T17:01:12.935Z,28.10
2019-01-03T17:04:00.131Z,27.60
2019-01-03T17:06:47.630Z,27.50
2019-01-03T17:09:35.090Z,26.30
2019-01-03T17:12:22.567Z,26.30
2019-01-03T17:15:09.840Z,25.80
2019-01-03T17:17:57.168Z,26.00
2019-01-03T17:20:44.753Z,26.30
2019-01-03T17:23:32.456Z,25.40
2019-01-03T17:26:20.935Z,25.80
2019-01-03T17:29:10.984Z,25.60
2019-01-03T17:31:59.289Z,25.40
2019-01-03T17:34:51.878Z,25.20
2019-01-03T17:37:39.607Z,25.60
2019-01-03T17:40:26.955Z,25.90
2019-01-03T17:43:17.060Z,25.80
2019-01-03T17:46:05.002Z,27.80
2019-01-03T17:48:52.383Z,27.70
2019-01-03T17:51:39.658Z,27.60
2019-01-03T17:54:27.143Z,28.60
2019-01-03T17:57:14.676Z,28.60
2019-01-03T18:00:02.456Z,29.00
2019-01-03T18:02:50.658Z,29.40
2019-01-03T18:05:38.119Z,28.90
2019-01-03T18:08:25.622Z,29.20
2019-01-03T18:11:13.138Z,29.60
2019-01-03T18:14:00.530Z,30.40
2019-01-03T18:16:48.611Z,31.50
2019-01-03T18:19:35.983Z,33.20
2019-01-03T18:22:23.161Z,32.90
2019-01-03T18:25:10.627Z,31.90
2019-01-03T18:27:57.792Z,30.70
2019-01-03T18:30:45.530Z,30.00
2019-01-03T18:33:33.255Z,29.40
2019-01-03T18:36:20.567Z,29.60
2019-01-03T18:39:07.707Z,29.30
2019-01-03T18:41:54.960Z,29.40
2019-01-03T18:44:43.608Z,29.50
2019-01-03T18:47:30.903Z,29.90
2019-01-03T18:50:18.964Z,29.90
2019-01-03T18:53:06.661Z,29.80
2019-01-03T18:55:53.791Z,29.70
2019-01-03T18:58:41.711Z,30.90
2019-01-03T19:01:29.150Z,31.10
2019-01-03T19:04:16.813Z,30.50
2019-01-03T19:07:06.247Z,30.40
2019-01-03T19:09:53.794Z,29.50
2019-01-03T19:12:41.463Z,29.30
2019-01-03T19:15:28.885Z,29.50
2019-01-03T19:18:16.440Z,29.60
2019-01-03T19:21:03.851Z,30.00
2019-01-03T19:23:55.399Z,29.60
2019-01-03T19:26:40.212Z,29.70
2019-01-03T19:29:27.755Z,30.90
2019-01-03T19:32:15.133Z,29.80
2019-01-03T19:35:02.424Z,29.80
2019-01-03T19:37:49.878Z,28.70
2019-01-03T19:40:37.323Z,28.80
2019-01-03T19:43:25.313Z,28.60
2019-01-03T19:46:12.911Z,28.90
2019-01-03T19:49:00.093Z,29.10
2019-01-03T19:51:47.602Z,29.30
2019-01-03T19:54:34.786Z,29.30
2019-01-03T19:57:22.576Z,28.80
2019-01-03T20:00:12.023Z,29.00
2019-01-03T20:03:00.611Z,29.10
2019-01-03T20:05:48.120Z,28.30
2019-01-03T20:08:35.678Z,28.90
2019-01-03T20:11:23.327Z,28.10
2019-01-03T20:14:11.050Z,28.50
2019-01-03T20:16:58.952Z,27.80
2019-01-03T20:19:47.439Z,28.40
2019-01-03T20:22:35.183Z,27.60
2019-01-03T20:25:22.455Z,26.80
2019-01-03T20:28:12.936Z,25.90
2019-01-03T20:31:01.266Z,25.70
2019-01-03T20:33:49.144Z,26.20
2019-01-03T20:36:37.194Z,25.80
2019-01-03T20:39:24.635Z,26.10
2019-01-03T20:42:12.620Z,26.20
2019-01-03T20:45:00.843Z,26.80
2019-01-03T20:47:49.250Z,26.80
2019-01-03T20:50:38.255Z,26.50
2019-01-03T20:53:25.829Z,26.30
2019-01-03T20:56:13.141Z,26.80
2019-01-03T20:59:01.084Z,26.70
2019-01-03T21:01:48.753Z,26.70
2019-01-03T21:04:36.395Z,27.10
2019-01-03T21:07:24.190Z,27.70
2019-01-03T21:10:12.968Z,26.80
2019-01-03T21:13:00.691Z,27.20
2019-01-03T21:15:48.366Z,27.70
2019-01-03T21:18:35.900Z,27.60
2019-01-03T21:21:23.504Z,27.20
2019-01-03T21:24:11.292Z,27.30
2019-01-03T21:26:58.976Z,26.90
2019-01-03T21:29:46.553Z,26.60
2019-01-03T21:32:33.702Z,25.90
2019-01-03T21:35:21.475Z,25.10
2019-01-03T21:38:09.176Z,24.20
2019-01-03T21:40:56.927Z,24.50
2019-01-03T21:44:03.666Z,24.80
2019-01-03T21:46:52.192Z,25.30
2019-01-03T21:49:39.625Z,25.10
2019-01-03T21:52:27.507Z,24.60
2019-01-03T21:55:15.195Z,24.70
2019-01-03T21:58:02.603Z,25.40
2019-01-03T22:00:49.995Z,25.60
2019-01-03T22:03:37.615Z,25.90
2019-01-03T22:06:26.013Z,26.40
2019-01-03T22:09:13.504Z,26.80
2019-01-03T22:12:00.928Z,26.20
2019-01-03T22:14:50.927Z,25.70
2019-01-03T22:17:38.511Z,25.20
2019-01-03T22:20:26.024Z,24.70
2019-01-03T22:23:13.542Z,24.60
2019-01-03T22:26:01.121Z,24.60
2019-01-03T22:28:49.292Z,24.20
2019-01-03T22:31:36.732Z,24.20
2019-01-03T22:34:24.502Z,24.60
2019-01-03T22:37:12.119Z,24.80
2019-01-03T22:39:59.564Z,25.00
2019-01-03T22:42:46.759Z,25.40
2019-01-03T22:45:34.575Z,25.20
2019-01-03T22:48:21.959Z,25.90
2019-01-03T22:51:09.545Z,25.80
2019-01-03T22:53:57.246Z,26.80
2019-01-03T22:56:45.036Z,25.50
2019-01-03T22:59:35.523Z,26.50
2019-01-03T23:02:23.360Z,26.00
2019-01-03T23:05:10.947Z,25.70
2019-01-03T23:07:58.659Z,26.10
2019-01-03T23:10:46.249Z,25.90
2019-01-03T23:13:34.254Z,26.10
2019-01-03T23:16:23.150Z,25.80
2019-01-03T23:19:10.655Z,26.00
2019-01-03T23:21:58.496Z,26.80
2019-01-03T23:24:46.207Z,26.60
2019-01-03T23:27:34.067Z,26.80
2019-01-03T23:30:22.613Z,27.50
2019-01-03T23:33:10.424Z,27.20
2019-01-03T23:35:57.888Z,27.20
2019-01-03T23:38:45.247Z,27.50
2019-01-03T23:41:32.743Z,27.90
2019-01-03T23:44:19.992Z,28.10
2019-01-03T23:47:07.453Z,27.90
2019-01-03T23:49:54.897Z,28.30
2019-01-03T23:52:42.653Z,28.70
2019-01-03T23:55:32.025Z,28.50
2019-01-03T23:58:19.497Z,28.70
